sensor_id;sensor_type;location;lat;lon;timestamp;P1;durP1;ratioP1;P2;durP2;ratioP2
66145;SDS011;52948;60.040;30.320;2023-03-01T00:03:38;1.27;;;0.70;;
66145;SDS011;52948;60.040;30.320;2023-03-01T00:08:40;0.95;;;0.60;;
66145;SDS011;52948;60.040;30.320;2023-03-01T00:13:47;1.30;;;0.40;;
66145;SDS011;52948;60.040;30.320;2023-03-01T00:18:55;0.80;;;0.30;;
66145;SDS011;52948;60.040;30.320;2023-03-01T00:23:58;1.88;;;0.63;;
66145;SDS011;52948;60.040;30.320;2023-03-01T00:29:04;2.88;;;0.60;;
66145;SDS011;52948;60.040;30.320;2023-03-01T00:34:06;2.85;;;0.50;;
66145;SDS011;52948;60.040;30.320;2023-03-01T00:39:11;0.82;;;0.60;;
66145;SDS011;52948;60.040;30.320;2023-03-01T00:44:15;2.25;;;0.50;;
66145;SDS011;52948;60.040;30.320;2023-03-01T00:49:21;1.48;;;0.65;;
66145;SDS011;52948;60.040;30.320;2023-03-01T00:54:26;0.88;;;0.70;;
66145;SDS011;52948;60.040;30.320;2023-03-01T00:59:28;1.80;;;0.50;;
66145;SDS011;52948;60.040;30.320;2023-03-01T01:04:30;5.53;;;0.68;;
66145;SDS011;52948;60.040;30.320;2023-03-01T01:09:32;1.58;;;0.57;;
66145;SDS011;52948;60.040;30.320;2023-03-01T01:14:35;3.85;;;0.43;;
66145;SDS011;52948;60.040;30.320;2023-03-01T01:19:37;1.88;;;0.60;;
66145;SDS011;52948;60.040;30.320;2023-03-01T01:24:39;2.53;;;0.50;;
66145;SDS011;52948;60.040;30.320;2023-03-01T01:29:41;1.48;;;0.60;;
66145;SDS011;52948;60.040;30.320;2023-03-01T01:34:44;2.47;;;0.52;;
66145;SDS011;52948;60.040;30.320;2023-03-01T01:39:46;0.43;;;0.40;;
66145;SDS011;52948;60.040;30.320;2023-03-01T01:45:15;0.50;;;0.50;;
66145;SDS011;52948;60.040;30.320;2023-03-01T01:50:27;1.52;;;0.40;;
66145;SDS011;52948;60.040;30.320;2023-03-01T01:55:36;1.38;;;0.50;;
66145;SDS011;52948;60.040;30.320;2023-03-01T02:00:39;0.98;;;0.30;;
66145;SDS011;52948;60.040;30.320;2023-03-01T02:05:49;0.50;;;0.50;;
66145;SDS011;52948;60.040;30.320;2023-03-01T02:10:54;1.88;;;0.63;;
66145;SDS011;52948;60.040;30.320;2023-03-01T02:15:57;1.50;;;0.63;;
66145;SDS011;52948;60.040;30.320;2023-03-01T02:21:08;1.60;;;0.65;;
66145;SDS011;52948;60.040;30.320;2023-03-01T02:31:21;1.05;;;0.52;;
66145;SDS011;52948;60.040;30.320;2023-03-01T02:36:44;2.97;;;0.85;;
66145;SDS011;52948;60.040;30.320;2023-03-01T02:41:52;1.35;;;0.60;;
66145;SDS011;52948;60.040;30.320;2023-03-01T02:46:56;0.70;;;0.57;;
66145;SDS011;52948;60.040;30.320;2023-03-01T02:57:10;1.77;;;0.65;;
66145;SDS011;52948;60.040;30.320;2023-03-01T03:02:23;2.15;;;0.60;;
66145;SDS011;52948;60.040;30.320;2023-03-01T03:07:51;1.98;;;0.50;;
66145;SDS011;52948;60.040;30.320;2023-03-01T03:12:58;3.13;;;0.82;;
66145;SDS011;52948;60.040;30.320;2023-03-01T03:18:07;1.92;;;0.65;;
66145;SDS011;52948;60.040;30.320;2023-03-01T03:23:11;1.85;;;0.50;;
66145;SDS011;52948;60.040;30.320;2023-03-01T03:28:13;2.42;;;0.73;;
66145;SDS011;52948;60.040;30.320;2023-03-01T03:33:17;1.58;;;0.60;;
66145;SDS011;52948;60.040;30.320;2023-03-01T03:38:19;1.73;;;0.73;;
66145;SDS011;52948;60.040;30.320;2023-03-01T03:43:23;1.02;;;0.80;;
66145;SDS011;52948;60.040;30.320;2023-03-01T03:48:26;1.15;;;0.40;;
66145;SDS011;52948;60.040;30.320;2023-03-01T03:53:29;2.60;;;0.50;;
66145;SDS011;52948;60.040;30.320;2023-03-01T03:58:31;0.70;;;0.45;;
66145;SDS011;52948;60.040;30.320;2023-03-01T04:03:34;1.75;;;0.57;;
66145;SDS011;52948;60.040;30.320;2023-03-01T04:08:36;2.80;;;0.52;;
66145;SDS011;52948;60.040;30.320;2023-03-01T04:13:39;2.22;;;0.98;;
66145;SDS011;52948;60.040;30.320;2023-03-01T04:18:41;5.15;;;0.73;;
66145;SDS011;52948;60.040;30.320;2023-03-01T04:23:43;1.50;;;0.50;;
66145;SDS011;52948;60.040;30.320;2023-03-01T04:28:45;1.00;;;0.63;;
66145;SDS011;52948;60.040;30.320;2023-03-01T04:33:53;2.40;;;0.75;;
66145;SDS011;52948;60.040;30.320;2023-03-01T04:38:56;3.65;;;0.63;;
66145;SDS011;52948;60.040;30.320;2023-03-01T04:43:59;2.35;;;0.65;;
66145;SDS011;52948;60.040;30.320;2023-03-01T04:49:02;0.63;;;0.63;;
66145;SDS011;52948;60.040;30.320;2023-03-01T04:54:07;3.75;;;0.73;;
66145;SDS011;52948;60.040;30.320;2023-03-01T04:59:10;1.17;;;0.40;;
66145;SDS011;52948;60.040;30.320;2023-03-01T05:04:14;1.13;;;0.45;;
66145;SDS011;52948;60.040;30.320;2023-03-01T05:09:16;2.10;;;1.23;;
66145;SDS011;52948;60.040;30.320;2023-03-01T05:14:18;2.28;;;0.90;;
66145;SDS011;52948;60.040;30.320;2023-03-01T05:19:21;0.63;;;0.52;;
66145;SDS011;52948;60.040;30.320;2023-03-01T05:24:24;0.65;;;0.50;;
66145;SDS011;52948;60.040;30.320;2023-03-01T05:29:27;3.22;;;0.65;;
66145;SDS011;52948;60.040;30.320;2023-03-01T05:34:34;0.65;;;0.60;;
66145;SDS011;52948;60.040;30.320;2023-03-01T05:39:37;1.70;;;0.75;;
66145;SDS011;52948;60.040;30.320;2023-03-01T05:44:40;2.50;;;0.88;;
66145;SDS011;52948;60.040;30.320;2023-03-01T05:49:42;2.30;;;0.70;;
66145;SDS011;52948;60.040;30.320;2023-03-01T05:54:44;4.78;;;1.20;;
66145;SDS011;52948;60.040;30.320;2023-03-01T05:59:47;0.77;;;0.60;;
66145;SDS011;52948;60.040;30.320;2023-03-01T06:04:49;0.73;;;0.60;;
66145;SDS011;52948;60.040;30.320;2023-03-01T06:09:51;1.77;;;0.70;;
66145;SDS011;52948;60.040;30.320;2023-03-01T06:14:54;0.50;;;0.50;;
66145;SDS011;52948;60.040;30.320;2023-03-01T06:19:56;4.65;;;1.42;;
66145;SDS011;52948;60.040;30.320;2023-03-01T06:24:58;2.42;;;1.13;;
66145;SDS011;52948;60.040;30.320;2023-03-01T06:30:00;5.40;;;1.15;;
66145;SDS011;52948;60.040;30.320;2023-03-01T06:35:03;1.30;;;0.80;;
66145;SDS011;52948;60.040;30.320;2023-03-01T06:40:06;3.22;;;1.00;;
66145;SDS011;52948;60.040;30.320;2023-03-01T06:45:10;5.60;;;0.90;;
66145;SDS011;52948;60.040;30.320;2023-03-01T06:50:13;1.85;;;0.88;;
66145;SDS011;52948;60.040;30.320;2023-03-01T06:55:15;1.38;;;0.80;;
66145;SDS011;52948;60.040;30.320;2023-03-01T07:00:18;2.40;;;1.17;;
66145;SDS011;52948;60.040;30.320;2023-03-01T07:05:21;2.88;;;0.80;;
66145;SDS011;52948;60.040;30.320;2023-03-01T07:10:23;3.80;;;0.90;;
66145;SDS011;52948;60.040;30.320;2023-03-01T07:15:26;1.58;;;0.80;;
66145;SDS011;52948;60.040;30.320;2023-03-01T07:20:28;1.48;;;0.80;;
66145;SDS011;52948;60.040;30.320;2023-03-01T07:25:31;2.75;;;1.05;;
66145;SDS011;52948;60.040;30.320;2023-03-01T07:30:34;4.55;;;1.02;;
66145;SDS011;52948;60.040;30.320;2023-03-01T07:35:36;2.55;;;1.20;;
66145;SDS011;52948;60.040;30.320;2023-03-01T07:40:38;2.78;;;0.95;;
66145;SDS011;52948;60.040;30.320;2023-03-01T07:45:40;4.30;;;1.05;;
66145;SDS011;52948;60.040;30.320;2023-03-01T07:50:42;2.92;;;0.80;;
66145;SDS011;52948;60.040;30.320;2023-03-01T07:55:45;6.00;;;1.08;;
66145;SDS011;52948;60.040;30.320;2023-03-01T08:00:47;3.00;;;1.00;;
66145;SDS011;52948;60.040;30.320;2023-03-01T08:05:49;5.47;;;1.48;;
66145;SDS011;52948;60.040;30.320;2023-03-01T08:10:51;4.82;;;1.40;;
66145;SDS011;52948;60.040;30.320;2023-03-01T08:15:54;4.63;;;1.75;;
66145;SDS011;52948;60.040;30.320;2023-03-01T08:21:05;4.05;;;1.10;;
66145;SDS011;52948;60.040;30.320;2023-03-01T08:26:18;3.08;;;1.13;;
66145;SDS011;52948;60.040;30.320;2023-03-01T08:31:32;3.35;;;1.15;;
66145;SDS011;52948;60.040;30.320;2023-03-01T08:36:41;3.13;;;1.30;;
66145;SDS011;52948;60.040;30.320;2023-03-01T08:41:44;3.45;;;1.83;;
66145;SDS011;52948;60.040;30.320;2023-03-01T08:46:47;1.42;;;0.80;;
66145;SDS011;52948;60.040;30.320;2023-03-01T08:51:51;3.10;;;1.10;;
66145;SDS011;52948;60.040;30.320;2023-03-01T08:56:54;2.95;;;0.93;;
66145;SDS011;52948;60.040;30.320;2023-03-01T09:01:56;4.03;;;0.70;;
66145;SDS011;52948;60.040;30.320;2023-03-01T09:06:58;5.97;;;0.85;;
66145;SDS011;52948;60.040;30.320;2023-03-01T09:12:01;1.48;;;0.63;;
66145;SDS011;52948;60.040;30.320;2023-03-01T09:17:03;3.05;;;1.10;;
66145;SDS011;52948;60.040;30.320;2023-03-01T09:22:05;2.40;;;0.40;;
66145;SDS011;52948;60.040;30.320;2023-03-01T09:27:07;2.75;;;0.77;;
66145;SDS011;52948;60.040;30.320;2023-03-01T09:32:10;2.65;;;0.88;;
66145;SDS011;52948;60.040;30.320;2023-03-01T09:37:12;3.67;;;0.70;;
66145;SDS011;52948;60.040;30.320;2023-03-01T09:42:16;1.02;;;0.85;;
66145;SDS011;52948;60.040;30.320;2023-03-01T09:47:23;2.92;;;0.57;;
66145;SDS011;52948;60.040;30.320;2023-03-01T09:52:29;1.45;;;0.68;;
66145;SDS011;52948;60.040;30.320;2023-03-01T09:57:44;1.03;;;0.50;;
66145;SDS011;52948;60.040;30.320;2023-03-01T10:03:07;4.65;;;0.68;;
66145;SDS011;52948;60.040;30.320;2023-03-01T10:08:29;4.55;;;0.80;;
66145;SDS011;52948;60.040;30.320;2023-03-01T10:19:00;0.73;;;0.50;;
66145;SDS011;52948;60.040;30.320;2023-03-01T10:24:12;0.60;;;0.40;;
66145;SDS011;52948;60.040;30.320;2023-03-01T10:29:16;1.77;;;0.43;;
66145;SDS011;52948;60.040;30.320;2023-03-01T10:34:20;1.98;;;0.50;;
66145;SDS011;52948;60.040;30.320;2023-03-01T10:39:25;0.20;;;0.20;;
66145;SDS011;52948;60.040;30.320;2023-03-01T10:44:35;3.67;;;0.73;;
66145;SDS011;52948;60.040;30.320;2023-03-01T10:49:43;4.20;;;0.50;;
66145;SDS011;52948;60.040;30.320;2023-03-01T10:54:58;1.52;;;0.60;;
66145;SDS011;52948;60.040;30.320;2023-03-01T11:00:15;1.35;;;0.60;;
66145;SDS011;52948;60.040;30.320;2023-03-01T11:05:23;1.35;;;0.50;;
66145;SDS011;52948;60.040;30.320;2023-03-01T11:10:36;4.88;;;1.00;;
66145;SDS011;52948;60.040;30.320;2023-03-01T11:15:38;2.22;;;0.82;;
66145;SDS011;52948;60.040;30.320;2023-03-01T11:20:40;1.40;;;0.70;;
66145;SDS011;52948;60.040;30.320;2023-03-01T11:25:44;1.35;;;0.55;;
66145;SDS011;52948;60.040;30.320;2023-03-01T11:41:37;1.38;;;0.50;;
66145;SDS011;52948;60.040;30.320;2023-03-01T12:08:47;1.45;;;0.75;;
66145;SDS011;52948;60.040;30.320;2023-03-01T12:19:24;1.27;;;0.60;;
66145;SDS011;52948;60.040;30.320;2023-03-01T12:35:02;2.05;;;0.50;;
66145;SDS011;52948;60.040;30.320;2023-03-01T12:50:41;2.77;;;0.90;;
66145;SDS011;52948;60.040;30.320;2023-03-01T12:55:45;3.85;;;0.95;;
66145;SDS011;52948;60.040;30.320;2023-03-01T13:00:59;1.13;;;0.85;;
66145;SDS011;52948;60.040;30.320;2023-03-01T13:06:19;1.97;;;0.77;;
66145;SDS011;52948;60.040;30.320;2023-03-01T13:11:27;2.45;;;0.93;;
66145;SDS011;52948;60.040;30.320;2023-03-01T13:21:31;1.27;;;0.70;;
66145;SDS011;52948;60.040;30.320;2023-03-01T13:26:39;1.40;;;0.60;;
66145;SDS011;52948;60.040;30.320;2023-03-01T13:32:10;1.85;;;0.65;;
66145;SDS011;52948;60.040;30.320;2023-03-01T13:37:33;1.48;;;0.80;;
66145;SDS011;52948;60.040;30.320;2023-03-01T13:42:45;2.58;;;0.70;;
66145;SDS011;52948;60.040;30.320;2023-03-01T13:47:54;2.92;;;0.90;;
66145;SDS011;52948;60.040;30.320;2023-03-01T13:53:00;3.13;;;0.83;;
66145;SDS011;52948;60.040;30.320;2023-03-01T13:58:43;2.40;;;0.63;;
66145;SDS011;52948;60.040;30.320;2023-03-01T14:03:56;1.00;;;0.43;;
66145;SDS011;52948;60.040;30.320;2023-03-01T14:20:49;3.20;;;0.70;;
66145;SDS011;52948;60.040;30.320;2023-03-01T14:25:55;0.95;;;0.60;;
66145;SDS011;52948;60.040;30.320;2023-03-01T14:30:59;0.63;;;0.50;;
66145;SDS011;52948;60.040;30.320;2023-03-01T14:36:06;0.52;;;0.30;;
66145;SDS011;52948;60.040;30.320;2023-03-01T14:52:04;1.40;;;0.43;;
66145;SDS011;52948;60.040;30.320;2023-03-01T14:57:33;0.40;;;0.40;;
66145;SDS011;52948;60.040;30.320;2023-03-01T15:02:35;5.75;;;2.17;;
66145;SDS011;52948;60.040;30.320;2023-03-01T15:07:40;13.32;;;5.97;;
66145;SDS011;52948;60.040;30.320;2023-03-01T15:12:44;4.82;;;2.40;;
66145;SDS011;52948;60.040;30.320;2023-03-01T15:17:51;8.38;;;2.75;;
66145;SDS011;52948;60.040;30.320;2023-03-01T15:22:58;6.60;;;1.70;;
66145;SDS011;52948;60.040;30.320;2023-03-01T15:28:12;3.30;;;1.50;;
66145;SDS011;52948;60.040;30.320;2023-03-01T15:38:35;1.67;;;0.65;;
66145;SDS011;52948;60.040;30.320;2023-03-01T15:43:43;2.28;;;0.85;;
66145;SDS011;52948;60.040;30.320;2023-03-01T15:48:47;0.93;;;0.70;;
66145;SDS011;52948;60.040;30.320;2023-03-01T15:53:52;5.38;;;0.65;;
66145;SDS011;52948;60.040;30.320;2023-03-01T15:58:59;0.70;;;0.55;;
66145;SDS011;52948;60.040;30.320;2023-03-01T16:04:03;1.30;;;0.63;;
66145;SDS011;52948;60.040;30.320;2023-03-01T16:09:05;1.95;;;0.30;;
66145;SDS011;52948;60.040;30.320;2023-03-01T16:14:08;1.05;;;0.50;;
66145;SDS011;52948;60.040;30.320;2023-03-01T16:19:11;1.52;;;0.80;;
66145;SDS011;52948;60.040;30.320;2023-03-01T16:24:13;2.40;;;1.02;;
66145;SDS011;52948;60.040;30.320;2023-03-01T16:29:16;0.95;;;0.75;;
66145;SDS011;52948;60.040;30.320;2023-03-01T16:34:18;0.95;;;0.60;;
66145;SDS011;52948;60.040;30.320;2023-03-01T16:39:23;1.33;;;0.90;;
66145;SDS011;52948;60.040;30.320;2023-03-01T16:44:26;0.90;;;0.57;;
66145;SDS011;52948;60.040;30.320;2023-03-01T16:49:28;2.25;;;1.00;;
66145;SDS011;52948;60.040;30.320;2023-03-01T16:54:30;1.10;;;0.55;;
66145;SDS011;52948;60.040;30.320;2023-03-01T16:59:33;0.98;;;0.38;;
66145;SDS011;52948;60.040;30.320;2023-03-01T17:04:35;2.97;;;0.80;;
66145;SDS011;52948;60.040;30.320;2023-03-01T17:09:38;3.05;;;1.13;;
66145;SDS011;52948;60.040;30.320;2023-03-01T17:14:50;7.47;;;1.40;;
66145;SDS011;52948;60.040;30.320;2023-03-01T17:19:56;1.90;;;1.02;;
66145;SDS011;52948;60.040;30.320;2023-03-01T17:25:08;4.88;;;1.75;;
66145;SDS011;52948;60.040;30.320;2023-03-01T17:30:14;7.28;;;2.00;;
66145;SDS011;52948;60.040;30.320;2023-03-01T17:35:20;7.38;;;1.85;;
66145;SDS011;52948;60.040;30.320;2023-03-01T17:40:22;5.68;;;1.92;;
66145;SDS011;52948;60.040;30.320;2023-03-01T17:45:25;6.75;;;1.73;;
66145;SDS011;52948;60.040;30.320;2023-03-01T17:50:27;2.42;;;1.55;;
66145;SDS011;52948;60.040;30.320;2023-03-01T17:55:29;2.00;;;1.38;;
66145;SDS011;52948;60.040;30.320;2023-03-01T18:00:36;4.35;;;1.98;;
66145;SDS011;52948;60.040;30.320;2023-03-01T18:05:39;3.40;;;2.13;;
66145;SDS011;52948;60.040;30.320;2023-03-01T18:10:41;6.30;;;2.08;;
66145;SDS011;52948;60.040;30.320;2023-03-01T18:15:44;3.67;;;2.13;;
66145;SDS011;52948;60.040;30.320;2023-03-01T18:20:53;2.72;;;1.45;;
66145;SDS011;52948;60.040;30.320;2023-03-01T18:26:02;6.25;;;2.10;;
66145;SDS011;52948;60.040;30.320;2023-03-01T18:31:07;3.05;;;1.30;;
66145;SDS011;52948;60.040;30.320;2023-03-01T18:41:42;3.60;;;1.73;;
66145;SDS011;52948;60.040;30.320;2023-03-01T18:46:45;3.90;;;1.25;;
66145;SDS011;52948;60.040;30.320;2023-03-01T18:51:47;8.50;;;2.35;;
66145;SDS011;52948;60.040;30.320;2023-03-01T18:56:50;5.50;;;1.83;;
66145;SDS011;52948;60.040;30.320;2023-03-01T19:01:53;3.72;;;2.03;;
66145;SDS011;52948;60.040;30.320;2023-03-01T19:06:55;4.35;;;2.05;;
66145;SDS011;52948;60.040;30.320;2023-03-01T19:11:58;3.92;;;1.60;;
66145;SDS011;52948;60.040;30.320;2023-03-01T19:17:02;5.13;;;1.63;;
66145;SDS011;52948;60.040;30.320;2023-03-01T19:22:05;4.03;;;1.30;;
66145;SDS011;52948;60.040;30.320;2023-03-01T19:27:08;2.53;;;1.60;;
66145;SDS011;52948;60.040;30.320;2023-03-01T19:32:10;2.00;;;1.05;;
66145;SDS011;52948;60.040;30.320;2023-03-01T19:37:12;3.05;;;1.38;;
66145;SDS011;52948;60.040;30.320;2023-03-01T19:42:15;3.35;;;1.70;;
66145;SDS011;52948;60.040;30.320;2023-03-01T19:47:17;1.65;;;0.90;;
66145;SDS011;52948;60.040;30.320;2023-03-01T19:52:20;2.85;;;1.17;;
66145;SDS011;52948;60.040;30.320;2023-03-01T19:57:23;3.47;;;1.13;;
66145;SDS011;52948;60.040;30.320;2023-03-01T20:02:26;3.95;;;1.65;;
66145;SDS011;52948;60.040;30.320;2023-03-01T20:07:28;3.90;;;1.70;;
66145;SDS011;52948;60.040;30.320;2023-03-01T20:12:30;7.45;;;1.77;;
66145;SDS011;52948;60.040;30.320;2023-03-01T20:17:32;5.50;;;2.42;;
66145;SDS011;52948;60.040;30.320;2023-03-01T20:22:34;5.57;;;2.97;;
66145;SDS011;52948;60.040;30.320;2023-03-01T20:27:37;7.03;;;3.45;;
66145;SDS011;52948;60.040;30.320;2023-03-01T20:32:39;6.85;;;3.15;;
66145;SDS011;52948;60.040;30.320;2023-03-01T20:37:41;5.88;;;2.88;;
66145;SDS011;52948;60.040;30.320;2023-03-01T20:42:46;4.80;;;2.08;;
66145;SDS011;52948;60.040;30.320;2023-03-01T20:47:48;5.63;;;2.50;;
66145;SDS011;52948;60.040;30.320;2023-03-01T20:52:51;5.28;;;2.15;;
66145;SDS011;52948;60.040;30.320;2023-03-01T20:57:53;5.38;;;2.17;;
66145;SDS011;52948;60.040;30.320;2023-03-01T21:02:55;1.88;;;1.60;;
66145;SDS011;52948;60.040;30.320;2023-03-01T21:07:58;3.58;;;2.03;;
66145;SDS011;52948;60.040;30.320;2023-03-01T21:13:03;2.88;;;1.88;;
66145;SDS011;52948;60.040;30.320;2023-03-01T21:18:05;2.92;;;2.28;;
66145;SDS011;52948;60.040;30.320;2023-03-01T21:23:08;4.70;;;2.30;;
66145;SDS011;52948;60.040;30.320;2023-03-01T21:28:10;3.60;;;2.00;;
66145;SDS011;52948;60.040;30.320;2023-03-01T21:33:12;4.60;;;1.98;;
66145;SDS011;52948;60.040;30.320;2023-03-01T21:38:17;14.10;;;4.72;;
66145;SDS011;52948;60.040;30.320;2023-03-01T21:43:20;14.32;;;5.82;;
66145;SDS011;52948;60.040;30.320;2023-03-01T21:48:23;17.90;;;6.78;;
66145;SDS011;52948;60.040;30.320;2023-03-01T21:53:25;15.85;;;6.72;;
66145;SDS011;52948;60.040;30.320;2023-03-01T21:58:31;11.52;;;5.57;;
66145;SDS011;52948;60.040;30.320;2023-03-01T22:03:33;9.93;;;4.78;;
66145;SDS011;52948;60.040;30.320;2023-03-01T22:13:50;10.90;;;3.42;;
66145;SDS011;52948;60.040;30.320;2023-03-01T22:18:53;6.45;;;3.45;;
66145;SDS011;52948;60.040;30.320;2023-03-01T22:23:56;5.65;;;2.55;;
66145;SDS011;52948;60.040;30.320;2023-03-01T22:28:59;5.80;;;2.20;;
66145;SDS011;52948;60.040;30.320;2023-03-01T22:34:03;5.72;;;2.25;;
66145;SDS011;52948;60.040;30.320;2023-03-01T22:39:06;4.70;;;2.17;;
66145;SDS011;52948;60.040;30.320;2023-03-01T22:44:09;2.25;;;1.40;;
66145;SDS011;52948;60.040;30.320;2023-03-01T22:49:12;2.80;;;1.60;;
66145;SDS011;52948;60.040;30.320;2023-03-01T22:54:16;3.03;;;1.58;;
66145;SDS011;52948;60.040;30.320;2023-03-01T22:59:20;4.43;;;1.38;;
66145;SDS011;52948;60.040;30.320;2023-03-01T23:04:23;4.55;;;2.15;;
66145;SDS011;52948;60.040;30.320;2023-03-01T23:09:27;4.95;;;2.40;;
66145;SDS011;52948;60.040;30.320;2023-03-01T23:14:33;4.70;;;2.70;;
66145;SDS011;52948;60.040;30.320;2023-03-01T23:19:36;5.72;;;2.95;;
66145;SDS011;52948;60.040;30.320;2023-03-01T23:24:38;6.10;;;3.00;;
66145;SDS011;52948;60.040;30.320;2023-03-01T23:29:41;3.55;;;2.10;;
66145;SDS011;52948;60.040;30.320;2023-03-01T23:34:44;5.05;;;2.25;;
66145;SDS011;52948;60.040;30.320;2023-03-01T23:39:46;3.53;;;1.70;;
66145;SDS011;52948;60.040;30.320;2023-03-01T23:44:48;3.13;;;1.70;;
66145;SDS011;52948;60.040;30.320;2023-03-01T23:49:51;5.18;;;1.67;;
66145;SDS011;52948;60.040;30.320;2023-03-01T23:54:53;3.05;;;1.80;;
66145;SDS011;52948;60.040;30.320;2023-03-01T23:59:55;2.80;;;1.85;;
